Airfield :
LOGIN :

Register | Disclaimer

   EN    FR    IT 

 










Legend :    VFR   Marginal VFR   IFR   Intensive IFR   Very Intensive IFR
Visi :
Ceiling :
>= 8 km
>= 3000ft
5 to 8 km
1000 to 3000 ft
1500m to 5 km
500 to 1000 ft
800 to 1500m
200 to 500 ft
< 800m
< 200 ft
Symbols :   Thunderstorms  Fog  Heavy snow  Heavy precipitations  Wind > 20 kt
SIGMETs :     Misc.  Thunderstorms  Icing  Turbulence  Mountain Waves  Volcanic Ashes







- Airport Elevation : 268 ft
- IATA code : BFS
- Download approach charts


EGAA - Belfast Aldergrove

CURRENT METAR :
  • 140350Z 22013KT 9999 SCT006 02/02 Q0985

EXPIRED METARs :
  • 140320Z 22014KT 9999 SCT006 02/02 Q0986
  • 140250Z 22015KT 9999 SCT006 02/02 Q0986
  • 140220Z 21011KT 9999 FEW005 02/02 Q0986
  • 140150Z 22010KT 9999 BKN005 BKN008 BKN018 01/01 Q0986 RERA

TAF TAF EGAA
Valid from the 14 at 00:00 until the 15 at 00:00 UTC


132302Z 1400/1424 23012KT 9999 FEW007 SCT025
TEMPO 1400/1410 25017G27KT 2000 SHRASN BKN003 BKN009CB
TEMPO 1410/1424 6000 SHRA BKN012
PROB30
TEMPO 1410/1424 BKN006
BECMG 1416/1419 30010KT
No reported NOTAMs for that airfield.



MET'MAP, your aeronautical weather chart ! - Copyright ORBIFLY December 2007 - Disclaimer

ORBIFLY MET'MAP TEAM :

Programming & Development : Alexandra Zaïnal
Concept & Development : Baudouin d'Aumeries
Co-Development & Prog : Marc-Olivier Méhu
Technical & hardware support : Manuel Goepfert

Contact : metmap@orbifly.com




SOURCES & CREDITS :

   NOAA